»·PEaware :: N541JS CZBB-KHND

N541JS :: CZBB-KHND

FLIGHT INFORMATION

Flight Status: Arrived
Operator: Privately registered:
United States
More flights under this callsign
Pilot: Alan J. (5709)
Aircraft: MOONEY M-20 201 202 205 220 ATS MSE
(M20P)
More flights by this aircraft type
Origin: CZBB Boundary Bay
Canada
Destination: KHND Henderson
United States
More flights between these airports :: More routes between these airports
Route: +FUZZY H100 BLD260 BLD
File this flight plan on PilotEdge
Remarks: ZLA Coverage Only
Altitude:
(Current/Filed)
10,000ft
Speed:
(Current/Filed)
180kts
Departed: 03-Apr-18 09:53 AM
Arrived: 03-Apr-18 10:49 AM
Distance/Time
Traveled:
858nm/0:56
Distance/Time
To Go:
Arrived

Flight Plot

Page will automatically refresh every two minutes.

Flight plan parsing failed; only flown route is shown


Map Options




Map Legend


Flown Route
Filed Route
Departure Airport
Arrival Airport
Navaid (VOR, NDB)
Fix

Horizontal Profiles

Position Reports

Time Latitude Longitude Heading Altitude Ground
Speed
03-Apr-18 09:51 37.140264 -117.032593 147 11046ft 181kts
03-Apr-18 09:52 37.098379 -116.997302 147 11046ft 183kts
03-Apr-18 09:53 37.063108 -116.967624 147 11046ft 184kts
03-Apr-18 09:54 37.013405 -116.925861 147 11046ft 185kts
03-Apr-18 09:55 36.970590 -116.889948 146 11001ft 187kts
03-Apr-18 09:56 36.927566 -116.853890 146 10990ft 186kts
03-Apr-18 09:57 36.892173 -116.824268 146 10975ft 186kts
03-Apr-18 09:58 36.849376 -116.788495 146 10963ft 185kts
03-Apr-18 09:59 36.806510 -116.752714 147 10955ft 185kts
03-Apr-18 10:00 36.772435 -116.707559 130 11283ft 171kts
03-Apr-18 10:01 36.742560 -116.664805 130 11967ft 156kts
03-Apr-18 10:02 36.710290 -116.618729 130 12884ft 148kts
03-Apr-18 10:03 36.688020 -116.586997 130 13548ft 145kts
03-Apr-18 10:04 36.661825 -116.549677 130 14343ft 142kts
03-Apr-18 10:05 36.635721 -116.512544 131 14971ft 154kts
03-Apr-18 10:06 36.604160 -116.467902 131 14968ft 184kts
03-Apr-18 10:07 36.569552 -116.418919 130 14965ft 191kts
03-Apr-18 10:08 36.534285 -116.369027 130 14964ft 193kts
03-Apr-18 10:09 36.498806 -116.319002 131 14962ft 193kts
03-Apr-18 10:10 36.463356 -116.268991 131 14962ft 193kts
03-Apr-18 10:11 36.428266 -116.219541 131 14963ft 193kts
03-Apr-18 10:12 36.392747 -116.169558 131 14963ft 193kts
03-Apr-18 10:13 36.357205 -116.119620 131 14963ft 193kts
03-Apr-18 10:14 36.321595 -116.069660 131 14963ft 193kts
03-Apr-18 10:15 36.285929 -116.019696 131 14963ft 193kts
03-Apr-18 10:16 36.250351 -115.969930 131 14964ft 193kts
03-Apr-18 10:17 36.214607 -115.920006 131 14964ft 193kts
03-Apr-18 10:18 36.186863 -115.863735 113 14964ft 193kts
03-Apr-18 10:19 36.164054 -115.803682 113 14991ft 191kts
03-Apr-18 10:20 36.142977 -115.748285 113 14215ft 167kts
03-Apr-18 10:21 36.123592 -115.697300 113 13221ft 162kts
03-Apr-18 10:22 36.102601 -115.641770 113 12297ft 200kts
03-Apr-18 10:23 36.078429 -115.577407 112 11320ft 209kts
03-Apr-18 10:24 36.055535 -115.514792 112 11003ft 187kts
03-Apr-18 10:25 36.034608 -115.458055 113 11007ft 178kts
03-Apr-18 10:26 36.026971 -115.399022 91 11011ft 174kts
03-Apr-18 10:27 36.027165 -115.340333 89 11014ft 174kts
03-Apr-18 10:28 36.024776 -115.281045 91 11017ft 174kts
03-Apr-18 10:29 36.021193 -115.221399 92 11022ft 174kts
03-Apr-18 10:30 36.017195 -115.161839 92 10959ft 178kts
03-Apr-18 10:31 36.013273 -115.106148 91 9962ft 151kts
03-Apr-18 10:32 36.009684 -115.055119 90 8965ft 147kts
03-Apr-18 10:33 36.006119 -115.005284 90 7978ft 145kts
03-Apr-18 10:34 36.002507 -114.955025 90 6996ft 145kts
03-Apr-18 10:35 35.998919 -114.906024 90 6107ft 145kts
03-Apr-18 10:36 35.992203 -114.854796 116 6028ft 155kts
03-Apr-18 10:37 35.969685 -114.808774 116 6017ft 157kts
03-Apr-18 10:38 35.941792 -114.817626 291 6025ft 140kts
03-Apr-18 10:39 35.965296 -114.852900 345 6030ft 136kts
03-Apr-18 10:40 35.994466 -114.878260 288 6022ft 144kts
03-Apr-18 10:41 35.979994 -114.927309 260 5713ft 154kts
03-Apr-18 10:42 35.977439 -114.976783 263 5719ft 143kts
03-Apr-18 10:43 35.969884 -115.024963 263 5718ft 143kts
03-Apr-18 10:44 35.950157 -115.068870 210 5258ft 168kts
03-Apr-18 10:45 35.911648 -115.099346 252 4681ft 146kts
03-Apr-18 10:46 35.927833 -115.132561 330 3588ft 100kts
03-Apr-18 10:47 35.949613 -115.135731 5 2858ft 71kts
03-Apr-18 10:48 35.967899 -115.135459 0 2494ft 37kts
03-Apr-18 10:49 35.971198 -115.136256 275 2494ft 4kts
03-Apr-18 10:50 35.972536 -115.136950 334 2494ft 6kts
03-Apr-18 10:51 35.974332 -115.136977 168 2494ft 5kts
03-Apr-18 10:52 35.974082 -115.139264 309 2494ft 9kts

Navigation Log

Ident Type
Flight plan parsing failed, navigation log unavailable